Time;durP1;ratioP1;P1;durP2;ratioP2;P2;SDS_P1;SDS_P2;PMS_P1;PMS_P2;Temp;Humidity;BMP_temperature;BMP_pressure;BME280_temperature;BME280_humidity;BME280_pressure;Samples;Min_cycle;Max_cycle;Signal;HPM_P1;HPM_P2
2021/09/07 07:59:55;;;;;;;13.57;8.05;;;27.80;99.90;;;;;;6272080;22;20210;-75
2021/09/07 08:02:22;;;;;;;14.23;7.93;;;28.20;99.90;;;;;;6275088;22;20178;-81
2021/09/07 08:04:48;;;;;;;14.40;7.82;;;28.30;99.90;;;;;;6277231;22;20665;-75
2021/09/07 08:07:15;;;;;;;14.65;8.00;;;28.50;99.90;;;;;;6275949;22;20206;-75
2021/09/07 08:09:42;;;;;;;14.68;8.20;;;28.80;99.90;;;;;;6277751;22;20189;-73
2021/09/07 08:12:09;;;;;;;13.23;8.27;;;28.10;99.80;;;;;;6277959;22;20179;-74
2021/09/07 08:14:36;;;;;;;15.85;8.70;;;27.00;99.90;;;;;;6277457;22;20547;-75
2021/09/07 08:17:05;;;;;;;15.63;8.60;;;27.00;99.90;;;;;;6277522;22;20229;-75
2021/09/07 08:19:32;;;;;;;13.90;8.15;;;26.90;99.90;;;;;;6277543;22;20211;-75
2021/09/07 08:21:58;;;;;;;16.90;7.75;;;26.80;99.90;;;;;;6277318;22;20182;-75
2021/09/07 08:24:27;;;;;;;14.32;8.20;;;27.10;99.90;;;;;;6277440;22;20178;-76
2021/09/07 08:26:54;;;;;;;15.82;7.90;;;27.30;99.90;;;;;;6277515;22;20268;-78
2021/09/07 08:29:21;;;;;;;19.20;8.95;;;27.40;99.90;;;;;;6277699;22;20179;-75
2021/09/07 08:31:47;;;;;;;13.45;7.85;;;27.70;99.90;;;;;;6277482;22;20174;-75
2021/09/07 08:34:15;;;;;;;13.82;7.60;;;28.10;99.90;;;;;;6276693;22;20206;-75
2021/09/07 08:36:42;;;;;;;16.83;7.60;;;28.10;99.90;;;;;;6276586;22;20688;-76
2021/09/07 08:39:09;;;;;;;11.85;6.90;;;27.90;99.90;;;;;;6277310;22;20174;-75
2021/09/07 08:41:36;;;;;;;13.45;7.70;;;27.40;99.90;;;;;;6277401;22;20174;-75
2021/09/07 08:44:03;;;;;;;15.25;7.70;;;26.90;99.90;;;;;;6277099;22;20179;-75
2021/09/07 08:46:32;;;;;;;14.05;7.68;;;27.00;99.90;;;;;;6276689;22;20529;-73
2021/09/07 08:48:59;;;;;;;13.38;7.20;;;26.90;99.90;;;;;;6276583;22;20182;-76
2021/09/07 08:51:27;;;;;;;14.20;7.43;;;26.30;99.90;;;;;;6277500;22;20175;-79
2021/09/07 08:53:54;;;;;;;15.07;6.82;;;25.70;99.90;;;;;;6277192;22;20202;-78
2021/09/07 08:56:21;;;;;;;15.82;7.50;;;25.60;99.90;;;;;;6277119;22;20230;-77
2021/09/07 08:58:49;;;;;;;16.92;7.78;;;25.60;99.90;;;;;;6276561;22;20181;-75
2021/09/07 09:01:18;;;;;;;13.93;6.85;;;25.70;99.90;;;;;;6277115;22;20269;-87
2021/09/07 09:03:46;;;;;;;12.43;6.80;;;26.10;99.90;;;;;;6277108;22;20179;-73
2021/09/07 09:06:14;;;;;;;14.40;6.53;;;26.20;99.90;;;;;;6277154;22;20529;-76
2021/09/07 09:08:43;;;;;;;12.27;6.53;;;25.80;99.90;;;;;;6277371;22;20181;-78
2021/09/07 09:11:13;;;;;;;14.80;7.13;;;25.60;99.90;;;;;;6276838;22;20653;-77
2021/09/07 09:13:45;;;;;;;13.68;7.20;;;25.50;99.90;;;;;;6276204;22;20217;-78
2021/09/07 09:16:13;;;;;;;14.05;6.50;;;25.20;99.90;;;;;;6276752;22;20205;-84
2021/09/07 09:18:42;;;;;;;14.02;7.30;;;25.40;99.90;;;;;;6277174;22;20174;-78
2021/09/07 09:21:24;;;;;;;14.98;7.13;;;25.40;99.90;;;;;;6277186;22;20179;-80
2021/09/07 09:24:15;;;;;;;12.45;5.88;;;25.50;99.90;;;;;;6276566;22;20261;-78
2021/09/07 09:26:59;;;;;;;11.77;6.05;;;25.60;99.90;;;;;;6276345;22;20202;-75
2021/09/07 09:29:28;;;;;;;11.27;6.50;;;25.90;99.90;;;;;;6276585;22;20190;-78
2021/09/07 09:31:57;;;;;;;10.32;5.78;;;26.00;99.90;;;;;;6276626;22;20178;-79
2021/09/07 09:34:25;;;;;;;12.90;5.53;;;25.90;99.90;;;;;;6276826;22;20206;-80
2021/09/07 09:36:57;;;;;;;14.75;6.38;;;25.90;99.90;;;;;;6276437;22;20617;-77
2021/09/07 09:39:46;;;;;;;11.95;6.20;;;25.90;99.90;;;;;;6277213;22;20175;-76
2021/09/07 09:42:18;;;;;;;10.60;5.22;;;25.70;99.90;;;;;;6275986;22;20540;-79
2021/09/07 09:44:44;;;;;;;9.55;5.43;;;25.20;99.90;;;;;;6276314;22;20236;-78
2021/09/07 09:47:11;;;;;;;9.90;5.45;;;25.10;99.90;;;;;;6275574;22;20209;-74
2021/09/07 09:49:39;;;;;;;12.70;6.22;;;25.10;99.90;;;;;;6271568;22;20178;-75
2021/09/07 09:52:08;;;;;;;8.75;4.93;;;24.80;99.90;;;;;;6275238;22;20179;-79
2021/09/07 09:54:38;;;;;;;12.70;5.47;;;24.80;99.90;;;;;;6274744;22;20207;-80
2021/09/07 09:57:07;;;;;;;11.63;5.82;;;24.90;99.60;;;;;;6274088;22;20525;-77
2021/09/07 09:59:34;;;;;;;13.82;5.85;;;24.70;99.90;;;;;;6274483;22;20531;-76
2021/09/07 10:02:02;;;;;;;10.80;5.70;;;24.70;98.30;;;;;;6273989;22;20675;-79
2021/09/07 10:04:31;;;;;;;10.55;5.60;;;24.80;98.50;;;;;;6274920;22;20185;-88
2021/09/07 10:06:58;;;;;;;12.02;5.50;;;24.90;98.90;;;;;;6275177;22;20205;-78
2021/09/07 10:09:27;;;;;;;10.75;5.38;;;25.00;98.80;;;;;;6275099;22;20257;-82
2021/09/07 10:12:04;;;;;;;11.10;5.97;;;25.00;97.70;;;;;;6273982;22;20547;-81
2021/09/07 10:14:35;;;;;;;11.60;5.10;;;24.90;98.30;;;;;;6274860;22;20301;-78
2021/09/07 10:17:35;;;;;;;8.70;5.18;;;25.00;97.30;;;;;;6274819;22;20290;-78
2021/09/07 10:20:14;;;;;;;8.73;4.65;;;24.70;97.90;;;;;;6274210;22;20217;-83
2021/09/07 10:23:11;;;;;;;9.77;5.53;;;24.70;97.30;;;;;;6274875;22;20185;-83
2021/09/07 10:25:55;;;;;;;9.25;5.10;;;24.70;98.50;;;;;;6274259;22;20214;-76
2021/09/07 10:28:36;;;;;;;9.73;5.20;;;24.80;97.70;;;;;;6273874;22;20655;-76
2021/09/07 10:31:10;;;;;;;8.95;4.88;;;24.90;98.50;;;;;;6274663;22;20258;-81
2021/09/07 10:33:42;;;;;;;11.20;5.50;;;25.10;99.00;;;;;;6273970;22;20502;-78
2021/09/07 10:36:14;;;;;;;10.00;5.38;;;25.20;98.80;;;;;;6275360;22;20519;-89
2021/09/07 10:38:43;;;;;;;8.75;5.00;;;25.40;98.30;;;;;;6275141;22;20181;-82
2021/09/07 10:41:31;;;;;;;9.65;5.45;;;25.20;98.80;;;;;;6274556;22;20281;-81
2021/09/07 10:43:59;;;;;;;9.40;5.20;;;25.30;99.20;;;;;;6274417;22;20183;-82
2021/09/07 10:46:49;;;;;;;10.25;5.32;;;25.40;98.70;;;;;;6274877;22;20205;-87
2021/09/07 10:49:22;;;;;;;9.98;4.97;;;25.50;98.30;;;;;;6273935;22;20257;-85
2021/09/07 10:52:09;;;;;;;10.65;5.07;;;25.60;97.40;;;;;;6274714;22;20178;-77
2021/09/07 10:54:42;;;;;;;12.07;5.68;;;25.60;98.00;;;;;;6275242;22;20206;-76
2021/09/07 10:57:09;;;;;;;10.07;5.00;;;25.50;97.00;;;;;;6274619;22;20203;-77
2021/09/07 10:59:46;;;;;;;10.50;5.00;;;25.50;98.00;;;;;;6276305;22;20265;-78
2021/09/07 11:02:40;;;;;;;10.13;5.00;;;25.50;97.00;;;;;;6276222;22;20240;-77
2021/09/07 11:05:09;;;;;;;7.05;4.00;;;25.70;96.70;;;;;;6276563;22;20181;-80
2021/09/07 11:07:41;;;;;;;9.77;4.07;;;25.70;95.50;;;;;;6277685;22;20195;-79
2021/09/07 11:10:27;;;;;;;7.03;3.95;;;25.70;95.40;;;;;;6277161;22;20174;-76
2021/09/07 11:12:56;;;;;;;7.68;3.80;;;25.70;95.50;;;;;;6276107;22;20182;-77
2021/09/07 11:15:24;;;;;;;5.47;3.47;;;25.70;95.40;;;;;;6276231;22;20217;-76
2021/09/07 11:17:54;;;;;;;6.53;3.47;;;25.60;95.00;;;;;;6278187;22;20195;-74
2021/09/07 11:20:23;;;;;;;5.88;3.72;;;25.70;96.00;;;;;;6278008;22;20647;-75
2021/09/07 11:22:50;;;;;;;9.57;3.78;;;25.70;96.80;;;;;;6277499;22;20578;-75
2021/09/07 11:25:19;;;;;;;6.57;4.03;;;25.80;97.50;;;;;;6278138;22;20261;-75
2021/09/07 11:27:51;;;;;;;7.00;3.85;;;25.90;97.50;;;;;;6278057;22;20195;-75
2021/09/07 11:30:27;;;;;;;8.45;4.07;;;25.90;97.50;;;;;;6277897;22;20185;-75
2021/09/07 11:33:05;;;;;;;9.98;4.00;;;25.70;97.20;;;;;;6278144;22;20175;-75
2021/09/07 11:35:34;;;;;;;9.10;3.80;;;25.60;97.60;;;;;;6277611;22;20202;-74
2021/09/07 11:38:03;;;;;;;7.90;3.70;;;25.70;97.70;;;;;;6278146;22;20198;-75
2021/09/07 11:40:32;;;;;;;7.60;3.67;;;25.70;97.90;;;;;;6278393;22;20181;-75
2021/09/07 11:42:59;;;;;;;5.38;3.10;;;25.70;97.70;;;;;;6277920;22;20612;-75
2021/09/07 11:45:28;;;;;;;5.53;3.00;;;25.70;98.00;;;;;;6278019;22;20197;-75
2021/09/07 11:47:56;;;;;;;5.90;3.28;;;25.70;98.20;;;;;;6277282;22;20664;-76
2021/09/07 11:50:27;;;;;;;5.38;3.20;;;25.60;97.80;;;;;;6277879;22;20175;-82
2021/09/07 11:52:55;;;;;;;5.88;2.60;;;25.50;98.50;;;;;;6273021;22;20241;-76
2021/09/07 11:55:39;;;;;;;6.30;3.35;;;25.60;98.10;;;;;;6276214;22;20210;-79
2021/09/07 11:58:06;;;;;;;5.00;2.88;;;25.70;98.00;;;;;;6276588;22;20205;-78
2021/09/07 12:00:33;;;;;;;4.78;2.65;;;25.70;98.10;;;;;;6275068;22;20269;-77
2021/09/07 12:03:13;;;;;;;7.13;3.40;;;25.80;98.70;;;;;;6276505;22;20175;-79
2021/09/07 12:05:55;;;;;;;5.68;3.10;;;25.90;97.90;;;;;;6276202;22;20221;-78
2021/09/07 12:08:33;;;;;;;5.63;3.30;;;26.00;99.10;;;;;;6275443;22;20624;-78
2021/09/07 12:11:00;;;;;;;4.22;2.47;;;26.10;99.00;;;;;;6275061;22;20185;-78
2021/09/07 12:13:27;;;;;;;5.97;3.00;;;26.10;98.70;;;;;;6276222;22;20265;-76
2021/09/07 12:15:54;;;;;;;4.18;2.60;;;26.10;98.80;;;;;;6275408;22;20230;-77
2021/09/07 12:18:28;;;;;;;4.25;2.90;;;26.10;98.70;;;;;;6273490;22;20185;-74
2021/09/07 12:21:15;;;;;;;5.07;3.05;;;26.20;99.80;;;;;;6276117;22;20253;-74
2021/09/07 12:23:45;;;;;;;4.20;2.58;;;26.20;98.60;;;;;;6274514;22;20206;-74
2021/09/07 12:26:13;;;;;;;5.22;2.60;;;26.30;98.90;;;;;;6274985;22;20202;-73
2021/09/07 12:28:40;;;;;;;7.30;2.90;;;26.30;99.50;;;;;;6275837;22;20589;-76
2021/09/07 12:31:12;;;;;;;5.60;2.60;;;26.40;99.40;;;;;;6274939;22;20225;-75
2021/09/07 12:33:44;;;;;;;5.85;3.03;;;26.50;99.80;;;;;;6275445;22;20174;-75
2021/09/07 12:36:13;;;;;;;5.13;3.05;;;26.60;98.90;;;;;;6276854;22;20525;-77
2021/09/07 12:38:40;;;;;;;5.80;2.90;;;26.50;98.40;;;;;;6271509;22;20185;-76
2021/09/07 12:41:09;;;;;;;6.72;3.75;;;26.60;98.60;;;;;;6275292;22;20178;-76
2021/09/07 12:43:41;;;;;;;5.32;2.95;;;26.40;98.70;;;;;;6275741;22;20258;-76
2021/09/07 12:46:09;;;;;;;4.38;2.40;;;26.40;99.40;;;;;;6274918;22;20195;-75
2021/09/07 12:48:38;;;;;;;4.40;2.67;;;26.30;99.10;;;;;;6275053;22;20261;-74
2021/09/07 12:51:06;;;;;;;3.72;2.45;;;26.40;99.20;;;;;;6275440;22;20258;-75
2021/09/07 12:53:38;;;;;;;6.68;3.17;;;26.50;99.00;;;;;;6275313;22;20179;-75
2021/09/07 12:56:06;;;;;;;6.28;3.03;;;26.40;99.10;;;;;;6275703;22;20219;-76
2021/09/07 12:58:35;;;;;;;5.10;3.20;;;26.40;98.80;;;;;;6275286;22;20601;-75
2021/09/07 13:01:04;;;;;;;4.55;2.40;;;26.30;99.20;;;;;;6274435;22;20189;-76
2021/09/07 13:03:31;;;;;;;4.00;2.70;;;26.20;99.50;;;;;;6275481;22;20202;-80
2021/09/07 13:05:59;;;;;;;4.47;2.97;;;26.30;99.10;;;;;;6275829;22;20182;-78
2021/09/07 13:08:26;;;;;;;4.30;2.97;;;26.30;99.40;;;;;;6274890;22;20175;-79
2021/09/07 13:10:54;;;;;;;4.78;2.78;;;26.30;99.70;;;;;;6276017;22;20298;-78
2021/09/07 13:13:21;;;;;;;6.05;3.10;;;26.50;99.80;;;;;;6275648;22;20225;-78
2021/09/07 13:15:48;;;;;;;4.55;2.60;;;26.40;98.80;;;;;;6274543;22;20210;-79
2021/09/07 13:18:15;;;;;;;6.55;2.95;;;26.30;99.10;;;;;;6275055;22;20175;-79
2021/09/07 13:20:41;;;;;;;5.95;2.75;;;26.30;99.40;;;;;;6275803;22;20214;-78
2021/09/07 13:23:10;;;;;;;4.32;2.60;;;26.50;99.90;;;;;;6274759;22;20174;-78
2021/09/07 13:25:37;;;;;;;4.63;2.88;;;26.60;99.70;;;;;;6275369;22;20186;-78
2021/09/07 13:28:05;;;;;;;5.68;3.22;;;26.50;98.80;;;;;;6275463;22;20290;-78
2021/09/07 13:30:32;;;;;;;4.53;2.80;;;26.50;99.10;;;;;;6274887;22;20628;-78
2021/09/07 13:32:59;;;;;;;5.72;2.97;;;26.60;99.50;;;;;;6275378;22;20179;-77
2021/09/07 13:35:26;;;;;;;4.35;2.50;;;26.70;98.90;;;;;;6275023;22;20577;-78
2021/09/07 13:37:53;;;;;;;5.30;2.83;;;26.80;99.60;;;;;;6274242;22;20194;-76
2021/09/07 13:40:19;;;;;;;4.72;2.50;;;26.80;99.90;;;;;;6275164;22;20261;-76
2021/09/07 13:42:46;;;;;;;5.68;2.80;;;26.80;98.90;;;;;;6275324;22;20202;-77
2021/09/07 13:45:14;;;;;;;6.32;2.67;;;26.70;98.50;;;;;;6274574;22;20257;-76
2021/09/07 13:47:41;;;;;;;5.03;2.80;;;26.70;98.10;;;;;;6276986;22;20195;-76
2021/09/07 13:50:10;;;;;;;3.65;2.55;;;26.80;99.00;;;;;;6275263;22;20733;-80
2021/09/07 13:52:37;;;;;;;4.32;2.72;;;26.80;99.00;;;;;;6275237;22;20193;-78
2021/09/07 13:55:05;;;;;;;4.90;2.95;;;26.70;99.60;;;;;;6276008;22;20245;-84
2021/09/07 13:57:32;;;;;;;4.93;2.90;;;26.60;99.90;;;;;;6275895;22;20207;-73
2021/09/07 13:59:59;;;;;;;3.55;2.38;;;26.60;99.40;;;;;;6276407;22;20186;-73
2021/09/07 14:02:27;;;;;;;3.92;2.05;;;26.50;99.20;;;;;;6276615;22;20197;-73
2021/09/07 14:04:54;;;;;;;3.80;2.50;;;26.70;99.90;;;;;;6276537;22;20636;-73
2021/09/07 14:07:20;;;;;;;3.97;2.47;;;26.80;99.10;;;;;;6276654;22;20281;-74
2021/09/07 14:09:47;;;;;;;4.85;2.40;;;26.60;98.90;;;;;;6276872;22;20175;-73
2021/09/07 14:12:14;;;;;;;7.32;2.88;;;26.60;99.90;;;;;;6276574;22;20175;-74
2021/09/07 14:14:41;;;;;;;5.68;2.97;;;26.60;99.40;;;;;;6276275;22;20175;-73
2021/09/07 14:17:08;;;;;;;4.00;2.33;;;26.60;99.60;;;;;;6276688;22;20195;-73
2021/09/07 14:19:36;;;;;;;5.35;3.05;;;26.60;99.60;;;;;;6276899;22;20174;-73
2021/09/07 14:22:03;;;;;;;4.07;2.55;;;26.70;99.80;;;;;;6276466;22;20175;-72
2021/09/07 14:24:30;;;;;;;5.25;2.45;;;26.70;99.90;;;;;;6276384;22;20258;-74
2021/09/07 14:26:57;;;;;;;4.35;2.45;;;26.50;99.40;;;;;;6276181;22;20198;-73
2021/09/07 14:29:24;;;;;;;3.35;2.42;;;26.50;99.90;;;;;;6275892;22;20500;-73
2021/09/07 14:31:51;;;;;;;4.18;2.55;;;26.70;99.80;;;;;;6276343;22;20181;-74
2021/09/07 14:34:17;;;;;;;4.88;2.45;;;26.70;99.20;;;;;;6276442;22;20197;-73
2021/09/07 14:36:45;;;;;;;3.80;2.47;;;26.80;99.60;;;;;;6276357;22;20233;-72
2021/09/07 14:39:12;;;;;;;3.05;2.30;;;26.80;99.50;;;;;;6276702;22;20175;-72
2021/09/07 14:41:40;;;;;;;3.75;2.03;;;26.80;99.10;;;;;;6276560;22;20175;-72
2021/09/07 14:44:07;;;;;;;4.22;2.20;;;26.90;99.40;;;;;;6276468;22;20181;-72
2021/09/07 14:46:34;;;;;;;4.20;2.10;;;26.70;99.10;;;;;;6276173;22;20209;-76
2021/09/07 14:49:01;;;;;;;3.78;2.15;;;26.60;99.60;;;;;;6275029;22;20506;-73
2021/09/07 14:51:27;;;;;;;2.90;2.03;;;26.50;99.70;;;;;;6275667;22;20175;-73
2021/09/07 14:53:56;;;;;;;4.35;2.30;;;26.60;99.90;;;;;;6276194;22;20258;-73
2021/09/07 14:56:23;;;;;;;3.25;2.13;;;26.60;99.90;;;;;;6276173;22;20575;-73
2021/09/07 14:58:49;;;;;;;4.05;2.53;;;26.70;99.60;;;;;;6275592;22;20174;-73
2021/09/07 15:01:16;;;;;;;5.38;2.50;;;26.50;99.30;;;;;;6275619;22;20186;-72
2021/09/07 15:03:43;;;;;;;4.15;2.33;;;26.60;99.50;;;;;;6275857;22;20179;-72
2021/09/07 15:06:10;;;;;;;3.95;2.33;;;26.80;99.60;;;;;;6275647;22;20703;-73
2021/09/07 15:08:37;;;;;;;4.20;2.33;;;26.70;99.90;;;;;;6276044;22;20501;-73
2021/09/07 15:11:05;;;;;;;4.72;2.45;;;26.60;99.40;;;;;;6276070;22;20545;-73
2021/09/07 15:13:32;;;;;;;3.97;2.33;;;26.60;99.40;;;;;;6276347;22;20215;-73
2021/09/07 15:15:59;;;;;;;4.63;2.25;;;26.40;99.70;;;;;;6276030;22;20217;-73
2021/09/07 15:18:26;;;;;;;3.70;2.33;;;26.40;99.80;;;;;;6275995;22;20505;-72
2021/09/07 15:20:53;;;;;;;4.93;2.35;;;26.40;99.80;;;;;;6276385;22;20181;-72
2021/09/07 15:23:19;;;;;;;4.95;2.33;;;26.40;99.90;;;;;;6276180;22;20261;-72
2021/09/07 15:25:46;;;;;;;3.97;2.33;;;26.30;99.90;;;;;;6275889;22;20648;-73
2021/09/07 15:28:15;;;;;;;4.85;2.20;;;26.30;99.90;;;;;;6275893;22;20509;-73
2021/09/07 15:30:41;;;;;;;4.72;2.45;;;26.40;99.90;;;;;;6276106;22;20622;-73
2021/09/07 15:33:08;;;;;;;4.10;2.10;;;26.40;99.90;;;;;;6275825;22;20628;-72
2021/09/07 15:35:35;;;;;;;3.35;1.60;;;26.40;99.90;;;;;;6276012;22;20213;-72
2021/09/07 15:38:02;;;;;;;4.18;2.00;;;26.50;99.80;;;;;;6276100;22;20199;-73
2021/09/07 15:40:29;;;;;;;4.03;1.92;;;26.30;99.40;;;;;;6275926;22;20179;-72
2021/09/07 15:42:56;;;;;;;2.55;1.70;;;26.20;99.60;;;;;;6276276;22;20175;-73
2021/09/07 15:45:24;;;;;;;5.63;2.00;;;26.20;99.90;;;;;;6277776;22;20179;-73
2021/09/07 15:47:51;;;;;;;4.68;2.38;;;26.20;99.90;;;;;;6277650;22;20195;-72
2021/09/07 15:50:17;;;;;;;4.10;2.00;;;26.30;99.90;;;;;;6278044;22;20175;-72
2021/09/07 15:52:47;;;;;;;3.35;1.83;;;26.30;99.90;;;;;;6278041;22;20235;-72
2021/09/07 15:55:15;;;;;;;3.67;1.88;;;26.20;99.90;;;;;;6277753;22;20182;-72
2021/09/07 15:57:41;;;;;;;4.00;2.13;;;26.30;99.90;;;;;;6277745;22;20194;-73
2021/09/07 16:00:09;;;;;;;4.57;1.92;;;26.30;99.90;;;;;;6277219;22;20183;-72
2021/09/07 16:02:37;;;;;;;4.88;2.05;;;26.20;99.90;;;;;;6276139;22;20175;-72
2021/09/07 16:05:05;;;;;;;3.20;2.15;;;26.10;99.90;;;;;;6278206;22;20333;-72
2021/09/07 16:07:34;;;;;;;4.00;1.88;;;26.10;99.90;;;;;;6277690;22;20202;-72
2021/09/07 16:10:01;;;;;;;4.65;1.95;;;26.10;99.90;;;;;;6278001;22;20217;-72
2021/09/07 16:12:29;;;;;;;2.72;1.80;;;26.20;99.90;;;;;;6277814;22;20186;-73
2021/09/07 16:14:56;;;;;;;3.20;2.30;;;26.30;99.90;;;;;;6277458;22;20183;-72
2021/09/07 16:17:23;;;;;;;3.63;2.30;;;26.20;99.90;;;;;;6277708;22;20293;-72
2021/09/07 16:19:51;;;;;;;4.18;2.53;;;26.20;99.90;;;;;;6277803;22;20257;-72
2021/09/07 16:22:18;;;;;;;4.28;2.60;;;26.20;99.90;;;;;;6277797;22;20174;-73
2021/09/07 16:24:45;;;;;;;3.40;2.20;;;26.10;99.90;;;;;;6277779;22;20187;-72
2021/09/07 16:27:12;;;;;;;3.58;2.00;;;26.10;99.90;;;;;;6277103;22;20670;-72
2021/09/07 16:29:39;;;;;;;3.22;1.95;;;26.10;99.90;;;;;;6277089;22;20178;-72
2021/09/07 16:32:07;;;;;;;3.17;2.05;;;26.00;99.90;;;;;;6277651;22;20257;-72
2021/09/07 16:34:34;;;;;;;4.43;2.25;;;26.00;99.90;;;;;;6274825;22;20182;-71
2021/09/07 16:37:03;;;;;;;4.47;2.10;;;25.90;99.90;;;;;;6277268;22;20211;-70
2021/09/07 16:39:30;;;;;;;2.42;1.60;;;26.00;99.90;;;;;;6276935;22;20185;-70
2021/09/07 16:41:57;;;;;;;2.95;2.00;;;26.00;99.90;;;;;;6276698;22;20683;-71
2021/09/07 16:44:24;;;;;;;4.07;2.15;;;26.00;99.90;;;;;;6276584;22;20606;-71
2021/09/07 16:46:50;;;;;;;3.80;2.22;;;25.90;99.90;;;;;;6276983;22;20198;-71
2021/09/07 16:49:17;;;;;;;2.50;1.75;;;25.90;99.90;;;;;;6277235;22;20175;-71
2021/09/07 16:51:44;;;;;;;3.20;2.15;;;25.80;99.90;;;;;;6276802;22;20175;-71
2021/09/07 16:54:27;;;;;;;6.35;2.30;;;25.70;99.90;;;;;;6277150;22;20178;-71
2021/09/07 16:56:54;;;;;;;4.38;2.53;;;25.70;99.90;;;;;;6276760;22;20210;-71
2021/09/07 16:59:21;;;;;;;6.07;3.30;;;25.70;99.90;;;;;;6277126;22;20175;-70
2021/09/07 17:01:48;;;;;;;4.80;2.33;;;25.70;99.90;;;;;;6276790;22;20178;-70
2021/09/07 17:04:14;;;;;;;7.10;3.05;;;25.70;99.90;;;;;;6276718;22;20175;-73
2021/09/07 17:06:41;;;;;;;5.47;2.88;;;25.60;99.90;;;;;;6277080;22;20201;-72
2021/09/07 17:09:08;;;;;;;5.78;3.53;;;25.60;99.90;;;;;;6277089;22;20540;-72
2021/09/07 17:11:36;;;;;;;5.25;3.15;;;25.50;99.90;;;;;;6276979;22;20175;-72
2021/09/07 17:14:03;;;;;;;8.15;3.45;;;25.50;99.90;;;;;;6277078;22;20182;-73
2021/09/07 17:16:32;;;;;;;8.05;3.53;;;25.60;99.90;;;;;;6276895;22;20210;-72
2021/09/07 17:19:00;;;;;;;5.70;3.92;;;25.50;99.90;;;;;;6276700;22;20229;-73
2021/09/07 17:21:27;;;;;;;6.68;4.07;;;25.40;99.90;;;;;;6276929;22;20181;-72
2021/09/07 17:23:54;;;;;;;7.63;4.07;;;25.30;99.90;;;;;;6277053;22;20175;-73
2021/09/07 17:26:21;;;;;;;8.73;4.45;;;25.30;99.90;;;;;;6276802;22;20687;-72
2021/09/07 17:28:50;;;;;;;7.72;3.75;;;25.30;99.90;;;;;;6277267;22;20175;-72
2021/09/07 17:31:24;;;;;;;5.43;4.07;;;25.20;99.90;;;;;;6277032;22;20179;-72
2021/09/07 17:34:00;;;;;;;6.88;4.10;;;25.20;99.90;;;;;;6276636;22;20558;-72
2021/09/07 17:41:31;;;;;;;6.85;4.00;;;25.10;99.90;;;;;;6237530;22;20537;-72
2021/09/07 17:42:07;;;;;;;5.65;3.45;;;25.10;99.90;;;;;;6276278;22;20289;-72
2021/09/07 17:44:35;;;;;;;7.18;4.00;;;25.00;99.90;;;;;;6276268;22;20175;-72
2021/09/07 17:47:02;;;;;;;6.68;3.92;;;24.90;99.90;;;;;;6276522;22;20253;-72
2021/09/07 17:49:29;;;;;;;6.43;4.15;;;24.80;99.90;;;;;;6276653;22;20193;-72
2021/09/07 17:51:56;;;;;;;8.38;4.38;;;24.80;99.90;;;;;;6276828;22;20182;-72
2021/09/07 17:54:23;;;;;;;9.50;4.10;;;24.60;99.90;;;;;;6276863;22;20175;-72
2021/09/07 17:56:49;;;;;;;6.75;3.65;;;24.60;99.90;;;;;;6276331;22;20213;-72
2021/09/07 17:59:16;;;;;;;6.03;3.95;;;24.60;99.90;;;;;;6276269;22;20185;-72
2021/09/07 18:01:44;;;;;;;9.65;4.70;;;24.60;99.90;;;;;;6276497;22;20265;-72
2021/09/07 18:04:11;;;;;;;7.85;3.80;;;24.50;99.90;;;;;;6276479;22;20181;-72
2021/09/07 18:06:38;;;;;;;6.75;3.28;;;24.60;99.90;;;;;;6276432;22;20201;-72
2021/09/07 18:09:05;;;;;;;6.95;3.88;;;24.40;99.90;;;;;;6276132;22;20182;-72
2021/09/07 18:11:32;;;;;;;7.70;3.13;;;24.30;99.90;;;;;;6276160;22;20179;-72
2021/09/07 18:13:59;;;;;;;7.13;4.05;;;24.20;99.90;;;;;;6276659;22;20175;-72
2021/09/07 18:16:26;;;;;;;5.80;3.60;;;24.10;99.90;;;;;;6276322;22;20213;-72
2021/09/07 18:18:54;;;;;;;6.95;3.42;;;24.00;99.90;;;;;;6276628;22;20174;-72
2021/09/07 18:21:21;;;;;;;6.05;3.67;;;23.80;99.90;;;;;;6276746;22;20257;-71
2021/09/07 18:23:48;;;;;;;5.85;3.95;;;23.70;99.90;;;;;;6276307;22;20179;-72
2021/09/07 18:26:15;;;;;;;6.90;3.67;;;23.70;99.90;;;;;;6276627;22;20195;-72
2021/09/07 18:28:41;;;;;;;7.07;3.47;;;23.60;99.90;;;;;;6269735;22;20179;-71
